Time;durP1;ratioP1;P1;durP2;ratioP2;P2;SDS_P1;SDS_P2;PMS_P1;PMS_P2;Temp;Humidity;BMP_temperature;BMP_pressure;BME280_temperature;BME280_humidity;BME280_pressure;Samples;Min_cycle;Max_cycle;Signal;HPM_P1;HPM_P2
2021/10/19 00:00:50;;;;;;;19.77;12.98;;;;;;;;;;4983486;28;20039;-63
2021/10/19 00:03:36;;;;;;;16.75;11.65;;;;;;;;;;4985882;28;20038;-62
2021/10/19 00:06:21;;;;;;;17.98;12.63;;;;;;;;;;4990558;28;20029;-61
2021/10/19 00:09:06;;;;;;;20.48;12.75;;;;;;;;;;4989395;28;20121;-62
2021/10/19 00:11:51;;;;;;;16.40;11.65;;;;;;;;;;4987462;28;20629;-62
2021/10/19 00:14:37;;;;;;;16.77;11.60;;;;;;;;;;4988209;28;20037;-64
2021/10/19 00:17:23;;;;;;;20.33;13.95;;;;;;;;;;4978570;28;20035;-65
2021/10/19 00:20:09;;;;;;;17.23;12.35;;;;;;;;;;4994371;28;20040;-65
2021/10/19 00:22:54;;;;;;;16.48;12.15;;;;;;;;;;4983095;28;20168;-65
2021/10/19 00:25:40;;;;;;;17.20;12.30;;;;;;;;;;4984315;28;20074;-65
2021/10/19 00:28:25;;;;;;;16.80;10.82;;;;;;;;;;4985599;28;20026;-69
2021/10/19 00:31:10;;;;;;;16.85;11.18;;;;;;;;;;4988086;28;20396;-66
2021/10/19 00:33:55;;;;;;;13.80;9.75;;;;;;;;;;4985110;28;20081;-72
2021/10/19 00:36:40;;;;;;;17.00;10.32;;;;;;;;;;4982408;28;20476;-65
2021/10/19 00:39:26;;;;;;;14.40;10.23;;;;;;;;;;4982266;28;20042;-64
2021/10/19 00:42:11;;;;;;;15.25;10.45;;;;;;;;;;4981674;28;20034;-62
2021/10/19 00:44:57;;;;;;;21.08;12.32;;;;;;;;;;4985605;28;20038;-62
2021/10/19 00:47:51;;;;;;;19.45;12.07;;;;;;;;;;4981789;28;20038;-63
2021/10/19 00:50:36;;;;;;;14.95;11.13;;;;;;;;;;4990860;28;20076;-63
2021/10/19 00:53:22;;;;;;;17.67;11.77;;;;;;;;;;4984705;28;20040;-61
2021/10/19 00:56:07;;;;;;;19.42;12.70;;;;;;;;;;4988343;28;20030;-64
2021/10/19 00:58:53;;;;;;;15.73;11.70;;;;;;;;;;4992281;28;20038;-66
2021/10/19 01:01:38;;;;;;;17.58;11.77;;;;;;;;;;4991618;28;20038;-66
2021/10/19 01:04:23;;;;;;;16.02;11.13;;;;;;;;;;4984928;28;20034;-65
2021/10/19 01:07:09;;;;;;;18.08;11.25;;;;;;;;;;5003056;28;20026;-64
2021/10/19 01:09:54;;;;;;;15.32;10.38;;;;;;;;;;4995606;28;20037;-64
2021/10/19 01:12:41;;;;;;;14.43;10.35;;;;;;;;;;4981283;28;20057;-70
2021/10/19 01:15:31;;;;;;;15.20;9.88;;;;;;;;;;4995461;28;20244;-61
2021/10/19 01:18:17;;;;;;;15.77;10.68;;;;;;;;;;4984827;28;20077;-63
2021/10/19 01:21:03;;;;;;;17.00;10.20;;;;;;;;;;4987686;28;20042;-64
2021/10/19 01:23:48;;;;;;;15.48;10.15;;;;;;;;;;4984561;28;20026;-64
2021/10/19 01:26:33;;;;;;;14.52;10.55;;;;;;;;;;4977602;28;20030;-61
2021/10/19 01:29:19;;;;;;;13.45;10.88;;;;;;;;;;4991167;28;20044;-64
2021/10/19 01:32:04;;;;;;;15.82;10.23;;;;;;;;;;4987506;28;20038;-65
2021/10/19 01:34:49;;;;;;;16.38;11.73;;;;;;;;;;4985521;28;20029;-63
2021/10/19 01:37:35;;;;;;;13.68;9.93;;;;;;;;;;4984533;28;20113;-67
2021/10/19 01:40:20;;;;;;;18.40;10.95;;;;;;;;;;4987860;28;20030;-63
2021/10/19 01:43:09;;;;;;;13.60;10.32;;;;;;;;;;4989489;28;20030;-63
2021/10/19 01:45:56;;;;;;;14.20;9.75;;;;;;;;;;4993702;28;20041;-64
2021/10/19 01:48:42;;;;;;;15.90;10.57;;;;;;;;;;4998510;28;20046;-71
2021/10/19 01:51:27;;;;;;;14.30;9.65;;;;;;;;;;4990660;28;20036;-60
2021/10/19 01:54:13;;;;;;;15.07;9.90;;;;;;;;;;4997044;28;20018;-62
2021/10/19 01:56:58;;;;;;;14.82;10.25;;;;;;;;;;4992877;28;20022;-62
2021/10/19 01:59:43;;;;;;;14.63;9.05;;;;;;;;;;4993309;28;20470;-62
2021/10/19 02:02:28;;;;;;;14.80;10.02;;;;;;;;;;4992831;28;20030;-62
2021/10/19 02:05:14;;;;;;;13.30;9.50;;;;;;;;;;4993441;28;20045;-61
2021/10/19 02:08:03;;;;;;;13.98;9.55;;;;;;;;;;4982908;28;20058;-67
2021/10/19 02:10:48;;;;;;;13.40;8.80;;;;;;;;;;4988151;28;20121;-66
2021/10/19 02:13:33;;;;;;;14.05;9.38;;;;;;;;;;4975813;28;20037;-66
2021/10/19 02:16:18;;;;;;;14.63;10.43;;;;;;;;;;4980160;28;20058;-68
2021/10/19 02:19:04;;;;;;;15.73;10.88;;;;;;;;;;4989443;28;20030;-68
2021/10/19 02:21:49;;;;;;;16.58;10.32;;;;;;;;;;4992166;28;20628;-68
2021/10/19 02:24:34;;;;;;;14.40;9.93;;;;;;;;;;4982510;28;20402;-65
2021/10/19 02:27:19;;;;;;;13.10;10.63;;;;;;;;;;4978687;28;20034;-67
2021/10/19 02:30:07;;;;;;;18.63;12.00;;;;;;;;;;4989105;28;20481;-68
2021/10/19 02:32:53;;;;;;;14.15;8.60;;;;;;;;;;4977055;28;20125;-71
2021/10/19 02:35:38;;;;;;;15.07;10.25;;;;;;;;;;4999882;28;20030;-67
2021/10/19 02:38:23;;;;;;;12.23;8.88;;;;;;;;;;4993802;28;20091;-70
2021/10/19 02:41:08;;;;;;;12.45;8.90;;;;;;;;;;4995533;28;20551;-66
2021/10/19 02:43:54;;;;;;;14.63;9.93;;;;;;;;;;4982682;28;20026;-67
2021/10/19 02:46:39;;;;;;;14.85;8.95;;;;;;;;;;4990339;28;20063;-62
2021/10/19 02:49:25;;;;;;;13.48;9.50;;;;;;;;;;4985284;28;20500;-66
2021/10/19 02:52:10;;;;;;;13.40;9.35;;;;;;;;;;4990684;28;20034;-63
2021/10/19 02:54:55;;;;;;;13.45;9.93;;;;;;;;;;4992112;28;20124;-68
2021/10/19 02:57:40;;;;;;;12.93;8.65;;;;;;;;;;4973204;28;20045;-66
2021/10/19 03:00:26;;;;;;;14.00;9.35;;;;;;;;;;4990589;28;20034;-64
2021/10/19 03:03:11;;;;;;;16.75;9.95;;;;;;;;;;4981551;28;20038;-65
2021/10/19 03:05:56;;;;;;;13.48;9.23;;;;;;;;;;4989063;28;20500;-67
2021/10/19 03:08:41;;;;;;;14.15;10.23;;;;;;;;;;4980587;28;20044;-67
2021/10/19 03:11:27;;;;;;;14.35;10.88;;;;;;;;;;4991090;28;20032;-67
2021/10/19 03:14:12;;;;;;;16.38;9.43;;;;;;;;;;4985315;28;20022;-66
2021/10/19 03:16:57;;;;;;;13.35;9.13;;;;;;;;;;4995859;28;20037;-66
2021/10/19 03:19:42;;;;;;;12.73;8.18;;;;;;;;;;4987934;28;20045;-66
2021/10/19 03:22:28;;;;;;;11.82;8.38;;;;;;;;;;4984033;28;20053;-62
2021/10/19 03:25:13;;;;;;;13.43;8.93;;;;;;;;;;4992955;28;20409;-70
2021/10/19 03:27:58;;;;;;;13.23;8.90;;;;;;;;;;4995923;28;20042;-68
2021/10/19 03:30:43;;;;;;;13.20;8.38;;;;;;;;;;4985394;28;20562;-68
2021/10/19 03:33:29;;;;;;;11.45;7.88;;;;;;;;;;4988831;28;20064;-68
2021/10/19 03:36:15;;;;;;;13.55;8.57;;;;;;;;;;4982069;28;20068;-68
2021/10/19 03:39:00;;;;;;;12.50;8.82;;;;;;;;;;4978730;28;20100;-67
2021/10/19 03:41:45;;;;;;;11.85;7.40;;;;;;;;;;4990345;28;20029;-63
2021/10/19 03:44:30;;;;;;;13.35;9.00;;;;;;;;;;4978463;28;20445;-63
2021/10/19 03:47:16;;;;;;;11.13;8.02;;;;;;;;;;4990436;28;20040;-60
2021/10/19 03:50:02;;;;;;;13.00;8.38;;;;;;;;;;4981830;28;20113;-64
2021/10/19 03:52:47;;;;;;;13.90;9.00;;;;;;;;;;4986795;28;20026;-60
2021/10/19 03:55:32;;;;;;;10.93;8.05;;;;;;;;;;4988635;28;20392;-60
2021/10/19 03:58:17;;;;;;;14.05;8.13;;;;;;;;;;4980951;28;20535;-62
2021/10/19 04:01:03;;;;;;;11.82;8.38;;;;;;;;;;4985549;28;20041;-70
2021/10/19 04:03:48;;;;;;;10.95;8.05;;;;;;;;;;4997930;28;20042;-68
2021/10/19 04:06:33;;;;;;;11.30;7.78;;;;;;;;;;4980039;28;20091;-68
2021/10/19 04:09:18;;;;;;;10.63;6.80;;;;;;;;;;4993418;28;20542;-67
2021/10/19 04:12:04;;;;;;;11.85;8.00;;;;;;;;;;4989753;28;20053;-68
2021/10/19 04:14:49;;;;;;;9.73;7.35;;;;;;;;;;4982107;28;20041;-74
2021/10/19 04:17:34;;;;;;;10.75;7.15;;;;;;;;;;4988263;28;20026;-63
2021/10/19 04:20:20;;;;;;;12.18;8.20;;;;;;;;;;4987084;28;20420;-64
2021/10/19 04:23:05;;;;;;;10.50;7.20;;;;;;;;;;4980128;28;20057;-64
2021/10/19 04:25:50;;;;;;;10.77;6.93;;;;;;;;;;4987999;28;20520;-65
2021/10/19 04:28:36;;;;;;;13.15;8.10;;;;;;;;;;4990149;28;20092;-65
2021/10/19 04:31:21;;;;;;;12.52;7.60;;;;;;;;;;4986294;28;20038;-64
2021/10/19 04:34:06;;;;;;;10.35;7.32;;;;;;;;;;4978964;28;20473;-62
2021/10/19 04:36:51;;;;;;;11.63;8.02;;;;;;;;;;4985083;28;20881;-63
2021/10/19 04:39:37;;;;;;;13.70;8.73;;;;;;;;;;4984696;28;20040;-65
2021/10/19 04:42:22;;;;;;;15.80;8.65;;;;;;;;;;4985499;28;20027;-65
2021/10/19 04:45:08;;;;;;;12.45;8.82;;;;;;;;;;4981418;28;20034;-64
2021/10/19 04:47:54;;;;;;;10.10;7.35;;;;;;;;;;4988401;28;20048;-64
2021/10/19 04:50:40;;;;;;;11.45;7.43;;;;;;;;;;5005241;28;20543;-65
2021/10/19 04:53:25;;;;;;;11.70;8.27;;;;;;;;;;4991166;28;20117;-66
2021/10/19 04:56:11;;;;;;;12.05;7.07;;;;;;;;;;4980400;28;20037;-68
2021/10/19 04:58:56;;;;;;;10.95;6.57;;;;;;;;;;4991816;28;20030;-68
2021/10/19 05:01:41;;;;;;;12.93;7.95;;;;;;;;;;4989809;28;20409;-68
2021/10/19 05:04:26;;;;;;;10.52;6.80;;;;;;;;;;4986271;28;20032;-67
2021/10/19 05:07:11;;;;;;;10.90;7.03;;;;;;;;;;4976967;28;20385;-67
2021/10/19 05:09:57;;;;;;;11.75;8.35;;;;;;;;;;4989373;28;20162;-64
2021/10/19 05:12:43;;;;;;;12.90;7.20;;;;;;;;;;4988609;28;20042;-64
2021/10/19 05:15:28;;;;;;;11.98;8.07;;;;;;;;;;4985141;28;20109;-62
2021/10/19 05:18:13;;;;;;;11.32;7.20;;;;;;;;;;4979698;28;20466;-62
2021/10/19 05:20:59;;;;;;;11.45;7.63;;;;;;;;;;4984707;28;20029;-60
2021/10/19 05:23:44;;;;;;;12.10;7.60;;;;;;;;;;4983482;28;20046;-63
2021/10/19 05:26:29;;;;;;;11.20;8.30;;;;;;;;;;4987742;28;20385;-60
2021/10/19 05:29:15;;;;;;;13.20;7.65;;;;;;;;;;4987574;28;20121;-67
2021/10/19 05:32:00;;;;;;;12.80;8.52;;;;;;;;;;4989483;28;20028;-65
2021/10/19 05:34:45;;;;;;;12.55;8.18;;;;;;;;;;4986464;28;20464;-65
2021/10/19 05:37:31;;;;;;;10.48;7.30;;;;;;;;;;4994063;28;20050;-66
2021/10/19 05:40:16;;;;;;;12.18;7.60;;;;;;;;;;4984752;28;20045;-66
2021/10/19 05:43:01;;;;;;;12.50;7.55;;;;;;;;;;4987843;28;20389;-66
2021/10/19 05:45:46;;;;;;;12.43;7.65;;;;;;;;;;4992917;28;20042;-66
2021/10/19 05:48:32;;;;;;;10.35;6.65;;;;;;;;;;4990242;28;20033;-61
2021/10/19 05:51:17;;;;;;;10.35;6.53;;;;;;;;;;4992698;28;20041;-65
2021/10/19 05:54:02;;;;;;;11.50;8.13;;;;;;;;;;4985385;28;20038;-67
2021/10/19 05:56:48;;;;;;;12.20;7.70;;;;;;;;;;4992554;28;20048;-68
2021/10/19 05:59:33;;;;;;;11.13;7.78;;;;;;;;;;4984007;28;20037;-67
2021/10/19 06:02:18;;;;;;;12.35;7.82;;;;;;;;;;4985708;28;20026;-67
2021/10/19 06:05:04;;;;;;;19.17;7.35;;;;;;;;;;4987022;28;20034;-64
2021/10/19 06:07:51;;;;;;;13.38;8.27;;;;;;;;;;4984379;28;20042;-65
2021/10/19 06:10:36;;;;;;;11.50;8.05;;;;;;;;;;4986737;28;20523;-68
2021/10/19 06:13:22;;;;;;;12.23;7.97;;;;;;;;;;4993963;28;20048;-68
2021/10/19 06:16:07;;;;;;;14.07;8.30;;;;;;;;;;4991870;28;20054;-67
2021/10/19 06:18:52;;;;;;;12.50;7.57;;;;;;;;;;4981468;28;20298;-67
2021/10/19 06:21:38;;;;;;;12.77;8.25;;;;;;;;;;4981049;28;20559;-66
2021/10/19 06:24:24;;;;;;;11.07;7.55;;;;;;;;;;4976844;28;20028;-60
2021/10/19 06:27:09;;;;;;;12.35;7.57;;;;;;;;;;4982753;28;20071;-62
2021/10/19 06:29:54;;;;;;;11.68;7.75;;;;;;;;;;4988607;28;20054;-63
2021/10/19 06:32:40;;;;;;;12.75;7.32;;;;;;;;;;4994674;28;20385;-60
2021/10/19 06:35:25;;;;;;;12.63;8.93;;;;;;;;;;4989345;28;20516;-63
2021/10/19 06:38:10;;;;;;;10.90;8.07;;;;;;;;;;4985284;28;20042;-64
2021/10/19 06:40:56;;;;;;;10.63;6.75;;;;;;;;;;4989510;28;20481;-61
2021/10/19 06:43:41;;;;;;;13.88;7.93;;;;;;;;;;4991181;28;20053;-66
2021/10/19 06:46:26;;;;;;;10.40;7.47;;;;;;;;;;4992991;28;20465;-64
2021/10/19 06:49:13;;;;;;;13.95;6.80;;;;;;;;;;4987934;28;20049;-66
2021/10/19 06:51:58;;;;;;;12.63;7.60;;;;;;;;;;4988892;28;20492;-69
2021/10/19 06:54:44;;;;;;;11.45;8.07;;;;;;;;;;4982773;28;20047;-64
2021/10/19 06:57:30;;;;;;;14.00;8.30;;;;;;;;;;4982374;28;20038;-62
2021/10/19 07:00:16;;;;;;;10.30;7.20;;;;;;;;;;4995390;28;20564;-72
2021/10/19 07:03:02;;;;;;;10.85;6.85;;;;;;;;;;4968837;28;20046;-66
2021/10/19 07:05:47;;;;;;;14.75;8.52;;;;;;;;;;5001831;28;20038;-65
2021/10/19 07:08:33;;;;;;;12.20;8.15;;;;;;;;;;4979244;28;20709;-64
2021/10/19 07:11:18;;;;;;;11.05;7.47;;;;;;;;;;4990901;28;20529;-64
2021/10/19 07:14:04;;;;;;;10.32;6.75;;;;;;;;;;4980905;28;20049;-66
2021/10/19 07:16:49;;;;;;;13.57;8.77;;;;;;;;;;4986897;28;20022;-66
2021/10/19 07:19:38;;;;;;;10.85;7.20;;;;;;;;;;4987749;28;20026;-71
2021/10/19 07:22:25;;;;;;;9.70;7.30;;;;;;;;;;4989680;28;20030;-65
2021/10/19 07:25:10;;;;;;;12.10;7.18;;;;;;;;;;4989102;28;20038;-64
2021/10/19 07:28:00;;;;;;;8.90;6.40;;;;;;;;;;4972449;28;20236;-67
2021/10/19 07:30:45;;;;;;;12.73;8.00;;;;;;;;;;4992993;28;20069;-64
2021/10/19 07:33:31;;;;;;;13.10;6.85;;;;;;;;;;4985187;28;20034;-65
2021/10/19 07:36:16;;;;;;;10.88;6.40;;;;;;;;;;4989243;28;20042;-64
2021/10/19 07:39:01;;;;;;;10.02;6.32;;;;;;;;;;4983481;28;20063;-64
2021/10/19 07:41:46;;;;;;;11.00;6.15;;;;;;;;;;4989505;28;20026;-67
2021/10/19 07:44:32;;;;;;;10.05;6.15;;;;;;;;;;4991538;28;20022;-65
2021/10/19 07:47:17;;;;;;;13.02;7.57;;;;;;;;;;4984815;28;20032;-66
2021/10/19 07:50:02;;;;;;;9.25;6.28;;;;;;;;;;4986419;28;20026;-67
2021/10/19 07:52:50;;;;;;;9.07;5.85;;;;;;;;;;4975379;28;20034;-66
2021/10/19 07:55:35;;;;;;;8.98;5.82;;;;;;;;;;4987786;28;20029;-64
2021/10/19 07:58:20;;;;;;;9.23;5.80;;;;;;;;;;4995020;28;20573;-65
2021/10/19 08:01:05;;;;;;;9.02;5.80;;;;;;;;;;4992980;28;20056;-67
2021/10/19 08:03:51;;;;;;;9.02;5.72;;;;;;;;;;4986306;28;20113;-64
2021/10/19 08:06:37;;;;;;;9.27;5.50;;;;;;;;;;4986447;28;20243;-64
2021/10/19 08:09:23;;;;;;;10.32;5.68;;;;;;;;;;4971609;28;20044;-62
2021/10/19 08:12:08;;;;;;;6.68;4.90;;;;;;;;;;4986906;28;20037;-63
2021/10/19 08:14:56;;;;;;;7.80;5.28;;;;;;;;;;4990707;28;20400;-69
2021/10/19 08:17:42;;;;;;;7.97;5.00;;;;;;;;;;4990267;28;20100;-68
2021/10/19 08:20:27;;;;;;;16.92;10.02;;;;;;;;;;4981009;28;20046;-67
2021/10/19 08:23:12;;;;;;;17.75;9.35;;;;;;;;;;5005328;28;20088;-66
2021/10/19 08:25:58;;;;;;;19.60;9.93;;;;;;;;;;4980358;28;20037;-69
2021/10/19 08:28:44;;;;;;;18.42;11.07;;;;;;;;;;4990956;28;20026;-68
2021/10/19 08:31:30;;;;;;;19.08;10.75;;;;;;;;;;4991360;28;20041;-67
2021/10/19 08:34:15;;;;;;;19.23;10.27;;;;;;;;;;4984153;28;20065;-65
2021/10/19 08:37:00;;;;;;;17.08;10.55;;;;;;;;;;4990265;28;20042;-66
2021/10/19 08:39:45;;;;;;;20.33;11.38;;;;;;;;;;4980908;28;20465;-65
2021/10/19 08:42:31;;;;;;;19.27;10.73;;;;;;;;;;4974190;28;20461;-65
2021/10/19 08:45:17;;;;;;;15.98;10.45;;;;;;;;;;4988101;28;20066;-64
2021/10/19 08:48:02;;;;;;;20.10;10.02;;;;;;;;;;4986152;28;20033;-62
2021/10/19 08:50:48;;;;;;;17.80;10.45;;;;;;;;;;4986640;28;20042;-64
2021/10/19 08:53:40;;;;;;;20.65;10.98;;;;;;;;;;4986234;28;20038;-65
2021/10/19 08:56:25;;;;;;;18.00;11.68;;;;;;;;;;4986714;28;20026;-65
2021/10/19 08:59:11;;;;;;;20.23;11.55;;;;;;;;;;4987363;28;20060;-68
2021/10/19 09:01:57;;;;;;;17.70;10.40;;;;;;;;;;4991112;28;20065;-67
2021/10/19 09:04:43;;;;;;;18.10;11.27;;;;;;;;;;4997458;28;20425;-66
2021/10/19 09:07:28;;;;;;;15.55;9.90;;;;;;;;;;4983924;28;20118;-70
2021/10/19 09:10:17;;;;;;;18.02;10.82;;;;;;;;;;4982627;28;20029;-65
2021/10/19 09:13:06;;;;;;;16.92;9.57;;;;;;;;;;4991185;28;20031;-64
2021/10/19 09:15:51;;;;;;;11.57;8.77;;;;;;;;;;4992552;28;20069;-63
2021/10/19 09:18:36;;;;;;;14.90;9.65;;;;;;;;;;4990130;28;20250;-65
2021/10/19 09:21:28;;;;;;;12.13;8.98;;;;;;;;;;4989660;28;20500;-62
2021/10/19 09:24:27;;;;;;;14.50;9.07;;;;;;;;;;4983264;28;20048;-66
2021/10/19 09:27:17;;;;;;;11.82;8.48;;;;;;;;;;5006952;28;20029;-63
2021/10/19 09:30:06;;;;;;;11.73;7.88;;;;;;;;;;4972345;28;20417;-64
2021/10/19 09:32:52;;;;;;;10.85;6.72;;;;;;;;;;4983979;28;20390;-67
2021/10/19 09:35:37;;;;;;;11.13;6.15;;;;;;;;;;4990570;28;20064;-65
2021/10/19 09:38:22;;;;;;;10.90;6.40;;;;;;;;;;4994019;28;20069;-67
2021/10/19 09:41:08;;;;;;;11.77;5.75;;;;;;;;;;4992528;28;20386;-66
2021/10/19 09:43:53;;;;;;;7.88;4.78;;;;;;;;;;4995429;28;20033;-70
2021/10/19 09:46:39;;;;;;;8.45;5.53;;;;;;;;;;4995424;28;20096;-63
2021/10/19 09:49:26;;;;;;;9.30;6.07;;;;;;;;;;4990844;28;20080;-63
2021/10/19 09:52:11;;;;;;;8.95;6.15;;;;;;;;;;4987580;28;20068;-64
2021/10/19 09:54:57;;;;;;;9.77;5.70;;;;;;;;;;4982573;28;20018;-66
2021/10/19 09:57:43;;;;;;;12.02;6.45;;;;;;;;;;4994257;28;20449;-63
2021/10/19 10:00:32;;;;;;;12.32;6.28;;;;;;;;;;4990427;28;20033;-66
2021/10/19 10:03:18;;;;;;;8.75;5.55;;;;;;;;;;4992774;28;20056;-66
2021/10/19 10:06:03;;;;;;;7.45;5.05;;;;;;;;;;4989431;28;20408;-72
2021/10/19 10:08:48;;;;;;;10.38;6.28;;;;;;;;;;4987280;28;20059;-63
2021/10/19 10:11:37;;;;;;;8.65;5.07;;;;;;;;;;4992520;28;20045;-64
2021/10/19 10:14:22;;;;;;;7.78;5.07;;;;;;;;;;4972833;28;20030;-63
2021/10/19 10:17:09;;;;;;;8.98;5.20;;;;;;;;;;4992328;28;20033;-61
2021/10/19 10:20:05;;;;;;;11.88;6.10;;;;;;;;;;4988875;28;20363;-61
2021/10/19 10:22:50;;;;;;;7.45;4.63;;;;;;;;;;4990889;28;20064;-67
2021/10/19 10:25:36;;;;;;;7.65;3.88;;;;;;;;;;4983770;28;20112;-62
2021/10/19 10:28:28;;;;;;;6.07;3.92;;;;;;;;;;4991642;28;20457;-65
2021/10/19 10:31:17;;;;;;;6.50;3.55;;;;;;;;;;4985461;28;20444;-63
2021/10/19 10:34:03;;;;;;;;;;;;;;;;;;4992227;28;20111;-63
2021/10/19 10:36:50;;;;;;;7.10;3.35;;;;;;;;;;4992582;28;19913;-62
2021/10/19 10:39:35;;;;;;;6.15;3.83;;;;;;;;;;4994697;28;20108;-66
2021/10/19 10:42:21;;;;;;;5.88;3.17;;;;;;;;;;4989958;28;20116;-65
2021/10/19 10:45:19;;;;;;;8.45;3.83;;;;;;;;;;4991935;28;20056;-70
2021/10/19 10:48:05;;;;;;;7.05;3.58;;;;;;;;;;4982302;28;20113;-69
2021/10/19 10:50:50;;;;;;;6.60;4.40;;;;;;;;;;4986632;28;20034;-71
2021/10/19 10:53:37;;;;;;;6.82;4.03;;;;;;;;;;4988906;28;20104;-72
2021/10/19 10:56:22;;;;;;;6.63;4.28;;;;;;;;;;4995493;28;20041;-73
2021/10/19 10:59:08;;;;;;;6.65;3.83;;;;;;;;;;4993865;28;20195;-71
2021/10/19 11:01:58;;;;;;;9.23;4.07;;;;;;;;;;4990696;28;20030;-68
2021/10/19 11:04:47;;;;;;;5.20;3.90;;;;;;;;;;4994415;28;20030;-67
2021/10/19 11:07:35;;;;;;;5.45;3.88;;;;;;;;;;4983544;28;20037;-65
2021/10/19 11:10:21;;;;;;;9.70;4.60;;;;;;;;;;4992727;28;20394;-65
2021/10/19 11:13:06;;;;;;;7.45;3.92;;;;;;;;;;4983087;28;20088;-65
2021/10/19 11:15:52;;;;;;;6.30;3.50;;;;;;;;;;4991291;28;20029;-66
2021/10/19 11:18:37;;;;;;;5.75;3.53;;;;;;;;;;4987842;28;20196;-63
2021/10/19 11:21:22;;;;;;;5.30;4.00;;;;;;;;;;4991466;28;20072;-71
2021/10/19 11:24:09;;;;;;;6.75;4.53;;;;;;;;;;4989792;28;20092;-71
2021/10/19 11:26:55;;;;;;;4.60;3.10;;;;;;;;;;4989722;28;20026;-71
2021/10/19 11:29:41;;;;;;;5.78;3.80;;;;;;;;;;4986055;28;20392;-71
2021/10/19 11:32:27;;;;;;;7.20;3.65;;;;;;;;;;4988715;28;20084;-72
2021/10/19 11:35:12;;;;;;;5.50;4.00;;;;;;;;;;4990256;28;20049;-73
2021/10/19 11:37:57;;;;;;;6.95;3.60;;;;;;;;;;4993108;28;20498;-67
2021/10/19 11:40:42;;;;;;;6.28;3.67;;;;;;;;;;4980507;28;20173;-71
2021/10/19 11:43:28;;;;;;;5.95;3.80;;;;;;;;;;4984274;28;20030;-74
2021/10/19 11:46:14;;;;;;;9.60;3.97;;;;;;;;;;4997542;28;20041;-70
2021/10/19 11:49:01;;;;;;;4.70;3.47;;;;;;;;;;4990531;28;20037;-68
2021/10/19 11:51:48;;;;;;;4.72;3.58;;;;;;;;;;4988942;28;20044;-69
2021/10/19 11:54:35;;;;;;;5.85;3.20;;;;;;;;;;4981150;28;20034;-69
2021/10/19 11:57:21;;;;;;;5.57;3.90;;;;;;;;;;4982271;28;20666;-67
2021/10/19 12:00:08;;;;;;;6.60;4.57;;;;;;;;;;4989546;28;20459;-63
2021/10/19 12:02:58;;;;;;;9.52;4.85;;;;;;;;;;4986746;28;20066;-66
2021/10/19 12:05:43;;;;;;;8.88;5.13;;;;;;;;;;5004747;28;20042;-62
2021/10/19 12:08:30;;;;;;;5.28;3.88;;;;;;;;;;4988915;28;20053;-63
2021/10/19 12:11:15;;;;;;;5.72;3.40;;;;;;;;;;4983744;28;20046;-67
2021/10/19 12:14:02;;;;;;;4.97;3.13;;;;;;;;;;4988068;28;20026;-65
2021/10/19 12:16:52;;;;;;;5.43;3.40;;;;;;;;;;4978172;28;20046;-67
2021/10/19 12:19:38;;;;;;;7.00;3.72;;;;;;;;;;4991116;28;20029;-66
2021/10/19 12:22:31;;;;;;;5.63;3.35;;;;;;;;;;4988315;28;20132;-64
2021/10/19 12:25:16;;;;;;;6.70;4.22;;;;;;;;;;4988055;28;20038;-68
2021/10/19 12:28:02;;;;;;;6.22;3.88;;;;;;;;;;4989226;28;20210;-66
2021/10/19 12:30:47;;;;;;;8.07;4.35;;;;;;;;;;4992838;28;20107;-65
2021/10/19 12:33:32;;;;;;;6.10;3.97;;;;;;;;;;4973792;28;20034;-64
2021/10/19 12:36:18;;;;;;;6.82;4.32;;;;;;;;;;4978419;28;20201;-65
2021/10/19 12:39:08;;;;;;;8.30;4.75;;;;;;;;;;4996210;28;20034;-61
2021/10/19 12:41:54;;;;;;;8.43;4.38;;;;;;;;;;4992445;28;20124;-61
2021/10/19 12:44:39;;;;;;;7.63;4.32;;;;;;;;;;4985187;28;20466;-61
2021/10/19 12:47:24;;;;;;;9.85;4.43;;;;;;;;;;4988766;28;20037;-62
2021/10/19 12:50:10;;;;;;;6.45;3.90;;;;;;;;;;4984822;28;20488;-64
2021/10/19 12:52:55;;;;;;;7.50;4.30;;;;;;;;;;4986988;28;20031;-68
2021/10/19 12:55:40;;;;;;;9.90;4.60;;;;;;;;;;4990014;28;20133;-65
2021/10/19 12:58:27;;;;;;;6.40;4.18;;;;;;;;;;4981004;28;20045;-65
2021/10/19 13:01:14;;;;;;;7.35;4.65;;;;;;;;;;4990553;28;20042;-65
2021/10/19 13:03:59;;;;;;;8.05;5.25;;;;;;;;;;4970815;28;20030;-65
2021/10/19 13:06:44;;;;;;;8.05;4.95;;;;;;;;;;4980804;28;20034;-65
2021/10/19 13:09:30;;;;;;;7.40;4.82;;;;;;;;;;4990160;28;20034;-70
2021/10/19 13:12:15;;;;;;;11.45;5.10;;;;;;;;;;4985354;28;20034;-64
2021/10/19 13:15:01;;;;;;;8.80;5.15;;;;;;;;;;4982365;28;20096;-65
2021/10/19 13:17:46;;;;;;;10.25;6.00;;;;;;;;;;4988800;28;20049;-65
2021/10/19 13:20:31;;;;;;;10.60;4.68;;;;;;;;;;4985798;28;20397;-65
2021/10/19 13:23:17;;;;;;;7.63;4.90;;;;;;;;;;4992188;28;20044;-68
2021/10/19 13:26:02;;;;;;;10.27;5.07;;;;;;;;;;4973586;28;20038;-66
2021/10/19 13:28:48;;;;;;;9.93;4.82;;;;;;;;;;4987000;28;20069;-65
2021/10/19 13:31:33;;;;;;;8.93;4.72;;;;;;;;;;4989574;28;20082;-72
2021/10/19 13:34:18;;;;;;;9.05;5.13;;;;;;;;;;4982823;28;20489;-73
2021/10/19 13:37:03;;;;;;;9.38;5.82;;;;;;;;;;4993113;28;20034;-73
2021/10/19 13:39:49;;;;;;;9.07;5.38;;;;;;;;;;4992084;28;20018;-71
2021/10/19 13:42:35;;;;;;;10.65;6.32;;;;;;;;;;4964291;28;20512;-71
2021/10/19 13:45:20;;;;;;;11.48;5.63;;;;;;;;;;4986796;28;20400;-64
2021/10/19 13:48:09;;;;;;;6.85;4.53;;;;;;;;;;4983414;28;20113;-66
2021/10/19 13:50:55;;;;;;;8.23;5.38;;;;;;;;;;4980277;28;20614;-63
2021/10/19 13:53:40;;;;;;;9.02;6.30;;;;;;;;;;4987974;28;20099;-63
2021/10/19 13:56:25;;;;;;;8.02;4.53;;;;;;;;;;4983462;28;20069;-62
2021/10/19 13:59:13;;;;;;;8.13;4.78;;;;;;;;;;4983969;28;20057;-61
2021/10/19 14:01:59;;;;;;;10.60;6.07;;;;;;;;;;4995814;28;20101;-63
2021/10/19 14:04:44;;;;;;;8.20;5.70;;;;;;;;;;4980680;28;20515;-64
2021/10/19 14:07:30;;;;;;;8.25;5.10;;;;;;;;;;4985139;28;20039;-62
2021/10/19 14:10:15;;;;;;;7.82;5.85;;;;;;;;;;4986490;28;20109;-64
2021/10/19 14:13:00;;;;;;;8.40;4.80;;;;;;;;;;4990148;28;20057;-62
2021/10/19 14:15:46;;;;;;;9.50;5.60;;;;;;;;;;4988289;28;20029;-60
2021/10/19 14:18:31;;;;;;;9.15;5.38;;;;;;;;;;4989813;28;20477;-61
2021/10/19 14:21:18;;;;;;;8.30;5.55;;;;;;;;;;4987851;28;20041;-61
2021/10/19 14:24:04;;;;;;;11.32;6.15;;;;;;;;;;4988711;28;20425;-67
2021/10/19 14:26:49;;;;;;;14.00;7.50;;;;;;;;;;4987233;28;20030;-67
2021/10/19 14:29:34;;;;;;;12.98;8.70;;;;;;;;;;4974851;28;20118;-67
2021/10/19 14:32:24;;;;;;;10.07;5.78;;;;;;;;;;4993312;28;20042;-68
2021/10/19 14:35:09;;;;;;;8.98;6.32;;;;;;;;;;4991936;28;20034;-68
2021/10/19 14:37:54;;;;;;;9.48;5.43;;;;;;;;;;4989002;28;20034;-68
2021/10/19 14:40:39;;;;;;;6.90;4.63;;;;;;;;;;4987824;28;20188;-69
2021/10/19 14:43:25;;;;;;;8.27;5.00;;;;;;;;;;4987075;28;20048;-66
2021/10/19 14:46:10;;;;;;;8.98;4.93;;;;;;;;;;4985993;28;20477;-67
2021/10/19 14:48:56;;;;;;;9.02;4.93;;;;;;;;;;4988853;28;20037;-64
2021/10/19 14:51:43;;;;;;;8.45;4.90;;;;;;;;;;4982528;28;20037;-64
2021/10/19 14:54:28;;;;;;;8.65;5.03;;;;;;;;;;5004364;28;20033;-65
2021/10/19 14:57:14;;;;;;;8.13;5.25;;;;;;;;;;4986635;28;20496;-64
2021/10/19 14:59:59;;;;;;;6.65;4.90;;;;;;;;;;4985087;28;20043;-69
2021/10/19 15:02:46;;;;;;;9.98;5.40;;;;;;;;;;4987993;28;20397;-67
2021/10/19 15:05:32;;;;;;;8.35;5.40;;;;;;;;;;4973467;28;20169;-67
2021/10/19 15:08:17;;;;;;;8.27;4.82;;;;;;;;;;4976658;28;20025;-67
2021/10/19 15:11:02;;;;;;;8.68;5.28;;;;;;;;;;4975545;28;20401;-65
2021/10/19 15:13:48;;;;;;;7.55;4.90;;;;;;;;;;4988735;28;20658;-66
2021/10/19 15:16:33;;;;;;;9.18;4.70;;;;;;;;;;4980409;28;20023;-65
2021/10/19 15:19:20;;;;;;;10.10;4.55;;;;;;;;;;4962205;28;20121;-70
2021/10/19 15:22:05;;;;;;;7.78;4.60;;;;;;;;;;4988106;28;20030;-62
2021/10/19 15:24:51;;;;;;;7.38;5.03;;;;;;;;;;4990641;28;20044;-64
2021/10/19 15:27:39;;;;;;;10.73;5.70;;;;;;;;;;4988861;28;20026;-64
2021/10/19 15:30:25;;;;;;;8.30;5.57;;;;;;;;;;4999942;28;20156;-62
2021/10/19 15:33:10;;;;;;;8.27;4.82;;;;;;;;;;4985104;28;20034;-62
2021/10/19 15:35:55;;;;;;;11.80;6.03;;;;;;;;;;4989919;28;20049;-66
2021/10/19 15:38:40;;;;;;;7.55;5.18;;;;;;;;;;4989986;28;20055;-65
2021/10/19 15:41:27;;;;;;;6.97;4.55;;;;;;;;;;4977996;28;20429;-62
2021/10/19 15:44:12;;;;;;;9.30;4.88;;;;;;;;;;4986984;28;20026;-62
2021/10/19 15:46:57;;;;;;;9.73;4.82;;;;;;;;;;4987675;28;20037;-62
2021/10/19 15:49:43;;;;;;;7.22;4.63;;;;;;;;;;5000287;28;20065;-63
2021/10/19 15:52:28;;;;;;;6.78;4.53;;;;;;;;;;4988197;28;20292;-60
2021/10/19 15:55:13;;;;;;;6.85;4.30;;;;;;;;;;4986912;28;20033;-64
2021/10/19 15:57:58;;;;;;;8.55;4.57;;;;;;;;;;4976678;28;20488;-62
2021/10/19 16:00:44;;;;;;;9.65;5.10;;;;;;;;;;4979899;28;20092;-66
2021/10/19 16:03:29;;;;;;;9.45;5.28;;;;;;;;;;4988264;28;20034;-62
2021/10/19 16:06:15;;;;;;;8.40;4.95;;;;;;;;;;4990847;28;20050;-65
2021/10/19 16:09:00;;;;;;;8.38;5.40;;;;;;;;;;5001842;28;20026;-64
2021/10/19 16:11:46;;;;;;;10.35;5.22;;;;;;;;;;4988752;28;20136;-63
2021/10/19 16:14:31;;;;;;;9.27;5.03;;;;;;;;;;4992558;28;20026;-65
2021/10/19 16:17:17;;;;;;;6.88;4.85;;;;;;;;;;5006074;28;20121;-72
2021/10/19 16:20:02;;;;;;;8.10;4.80;;;;;;;;;;4988342;28;20029;-73
2021/10/19 16:22:48;;;;;;;8.65;5.25;;;;;;;;;;4982043;28;20077;-74